KMIW/MIW METAR and TAF weather

Enter ICAO airport designator
Station Type Date Time Source
KMIW METAR 2020/03/31 06:53 UTC NOAA

KMIW 310653Z AUTO 05009KT 10SM CLR 04/01 A3010 RMK AO2 SLP195 T00440006


Station Type Date Time Source
KMIW Decoded METAR 2020/03/31 06:53 UTC NOAA

MARSHALLTOWN MUNICIPAL AIRPORT , IA, United States (KMIW) 42-07N 92-55W 296M
Mar 31, 2020 - 02:53 AM EDT / 2020.03.31 0653 UTC
Wind: from the NE (050 degrees) at 10 MPH (9 KT):0
Visibility: 10 mile(s):0
Sky conditions: clear
Temperature: 39.9 F (4.4 C)
Dew Point: 33.1 F (0.6 C)
Relative Humidity: 76%
Pressure (altimeter): 30.1 in. Hg (1019 hPa)
ob: KMIW 310653Z AUTO 05009KT 10SM CLR 04/01 A3010 RMK AO2 SLP195 T00440006
cycle: 7

Station Type Date Time Source
KMIW TAF UTC NOAA

Error!

Example: see airport list